createdAt,value
2023-10-22T00:01:23.083Z,1.17
2023-10-22T00:03:51.784Z,0.80
2023-10-22T00:06:18.163Z,0.97
2023-10-22T00:08:44.886Z,0.70
2023-10-22T00:11:11.205Z,1.00
2023-10-22T00:13:37.445Z,0.77
2023-10-22T00:16:04.178Z,1.00
2023-10-22T00:18:31.155Z,0.83
2023-10-22T00:20:57.458Z,0.90
2023-10-22T00:23:23.702Z,1.37
2023-10-22T00:25:49.935Z,0.90
2023-10-22T00:28:16.300Z,1.20
2023-10-22T00:30:42.902Z,1.00
2023-10-22T00:33:09.220Z,0.80
2023-10-22T00:35:36.242Z,1.10
2023-10-22T00:38:02.636Z,0.80
2023-10-22T00:40:28.895Z,0.80
2023-10-22T00:42:55.342Z,1.23
2023-10-22T00:45:22.239Z,0.90
2023-10-22T00:47:48.727Z,1.00
2023-10-22T00:50:15.121Z,0.90
2023-10-22T00:52:42.175Z,1.10
2023-10-22T00:55:12.393Z,1.00
2023-10-22T00:57:39.665Z,1.17
2023-10-22T01:00:07.666Z,1.40
2023-10-22T01:02:34.344Z,0.83
2023-10-22T01:05:00.983Z,1.10
2023-10-22T01:07:27.317Z,1.00
2023-10-22T01:09:54.213Z,0.90
2023-10-22T01:12:20.463Z,0.90
2023-10-22T01:14:46.718Z,1.10
2023-10-22T01:17:13.032Z,0.70
2023-10-22T01:19:39.363Z,0.90
2023-10-22T01:22:05.627Z,0.90
2023-10-22T01:24:33.091Z,0.80
2023-10-22T01:26:59.551Z,1.10
2023-10-22T01:29:28.771Z,0.93
2023-10-22T01:31:57.996Z,1.03
2023-10-22T01:34:24.293Z,0.90
2023-10-22T01:36:52.781Z,1.10
2023-10-22T01:39:19.440Z,0.80
2023-10-22T01:41:50.988Z,0.50
2023-10-22T01:44:19.308Z,0.90
2023-10-22T01:46:45.790Z,0.90
2023-10-22T01:49:12.165Z,0.90
2023-10-22T01:51:38.717Z,0.80
2023-10-22T01:54:07.171Z,1.00
2023-10-22T01:56:33.497Z,1.00
2023-10-22T01:59:00.417Z,1.03
2023-10-22T02:01:27.400Z,0.80
2023-10-22T02:03:53.775Z,0.77
2023-10-22T02:06:20.180Z,0.80
2023-10-22T02:08:46.813Z,0.80
2023-10-22T02:11:15.024Z,0.57
2023-10-22T02:13:41.260Z,0.90
2023-10-22T02:16:08.189Z,0.90
2023-10-22T02:18:34.546Z,0.90
2023-10-22T02:21:05.264Z,0.90
2023-10-22T02:23:31.545Z,0.90
2023-10-22T02:25:57.903Z,0.70
2023-10-22T02:28:24.362Z,0.70
2023-10-22T02:30:51.759Z,0.80
2023-10-22T02:33:20.875Z,0.70
2023-10-22T02:35:47.515Z,0.97
2023-10-22T02:38:19.199Z,0.87
2023-10-22T02:40:48.990Z,0.87
2023-10-22T02:43:15.573Z,0.77
2023-10-22T02:45:49.304Z,0.80
2023-10-22T02:48:15.736Z,0.60
2023-10-22T02:50:43.380Z,0.70
2023-10-22T02:53:09.735Z,1.00
2023-10-22T02:55:36.033Z,0.70
2023-10-22T02:58:02.229Z,0.50
2023-10-22T03:00:36.102Z,0.50
2023-10-22T03:03:03.740Z,0.63
2023-10-22T03:05:32.344Z,0.33
2023-10-22T03:07:59.510Z,0.60
2023-10-22T03:10:25.779Z,0.27
2023-10-22T03:12:52.085Z,0.50
2023-10-22T03:15:18.935Z,0.60
2023-10-22T03:17:45.356Z,0.50
2023-10-22T03:20:16.879Z,1.43
2023-10-22T03:22:43.374Z,0.30
2023-10-22T03:25:10.711Z,0.50
2023-10-22T03:27:39.802Z,0.60
2023-10-22T03:30:13.042Z,0.50
2023-10-22T03:32:40.362Z,0.50
2023-10-22T03:35:07.384Z,0.50
2023-10-22T03:37:33.713Z,0.33
2023-10-22T03:39:59.957Z,0.60
2023-10-22T03:42:26.813Z,0.57
2023-10-22T03:44:53.156Z,0.33
2023-10-22T03:47:19.390Z,0.53
2023-10-22T03:49:45.686Z,0.27
2023-10-22T03:52:14.856Z,0.40
2023-10-22T03:54:44.445Z,0.40
2023-10-22T03:57:10.777Z,0.43
2023-10-22T03:59:38.025Z,0.40
2023-10-22T04:02:04.404Z,0.30
2023-10-22T04:04:30.919Z,0.57
2023-10-22T04:06:58.478Z,0.40
2023-10-22T04:09:24.710Z,0.30
2023-10-22T04:11:51.114Z,0.30
2023-10-22T04:14:17.375Z,0.50
2023-10-22T04:16:44.333Z,0.20
2023-10-22T04:19:10.610Z,0.20
2023-10-22T04:21:36.996Z,0.30
2023-10-22T04:24:03.945Z,0.23
2023-10-22T04:26:30.267Z,0.37
2023-10-22T04:28:56.623Z,0.30
2023-10-22T04:31:22.852Z,0.30
2023-10-22T04:33:49.977Z,0.40
2023-10-22T04:36:16.985Z,0.30
2023-10-22T04:38:43.343Z,0.20
2023-10-22T04:41:13.048Z,0.40
2023-10-22T04:43:40.781Z,0.43
2023-10-22T04:46:07.027Z,0.30
2023-10-22T04:48:33.907Z,0.40
2023-10-22T04:51:06.597Z,0.30
2023-10-22T04:53:33.555Z,0.40
2023-10-22T04:56:01.324Z,0.20
2023-10-22T04:58:28.696Z,0.57
2023-10-22T05:00:55.352Z,0.27
2023-10-22T05:03:21.889Z,0.30
2023-10-22T05:05:48.243Z,0.37
2023-10-22T05:08:15.222Z,0.20
2023-10-22T05:10:41.818Z,0.40
2023-10-22T05:13:09.265Z,0.40
2023-10-22T05:15:35.825Z,0.70
2023-10-22T05:18:04.953Z,0.50
2023-10-22T05:20:31.283Z,0.40
2023-10-22T05:22:58.047Z,0.57
2023-10-22T05:25:24.983Z,0.57
2023-10-22T05:27:51.316Z,0.60
2023-10-22T05:30:18.103Z,0.80
2023-10-22T05:32:44.660Z,0.80
2023-10-22T05:35:11.169Z,1.00
2023-10-22T05:37:37.385Z,0.50
2023-10-22T05:40:04.908Z,0.50
2023-10-22T05:42:34.163Z,0.63
2023-10-22T05:45:01.201Z,0.50
2023-10-22T05:47:32.095Z,0.37
2023-10-22T05:49:58.784Z,0.47
2023-10-22T05:52:26.955Z,0.77
2023-10-22T05:54:53.158Z,0.63
2023-10-22T05:57:21.634Z,0.67
2023-10-22T05:59:48.729Z,0.53
2023-10-22T06:02:15.177Z,0.63
2023-10-22T06:04:41.548Z,0.70
2023-10-22T06:07:08.414Z,1.23
2023-10-22T06:09:35.171Z,1.10
2023-10-22T06:12:01.588Z,1.20
2023-10-22T06:14:27.882Z,0.70
2023-10-22T06:16:54.775Z,0.90
2023-10-22T06:19:21.056Z,0.63
2023-10-22T06:21:47.580Z,0.60
2023-10-22T06:24:13.870Z,0.43
2023-10-22T06:26:40.560Z,0.67
2023-10-22T06:29:06.841Z,0.77
2023-10-22T06:31:35.988Z,0.60
2023-10-22T06:34:03.391Z,0.60
2023-10-22T06:36:29.796Z,0.53
2023-10-22T06:38:56.061Z,0.40
2023-10-22T06:41:23.093Z,0.90
2023-10-22T06:43:49.566Z,0.60
2023-10-22T06:46:17.512Z,0.57
2023-10-22T06:48:44.097Z,0.77
2023-10-22T06:51:11.832Z,1.10
2023-10-22T06:53:38.465Z,0.57
2023-10-22T06:56:05.351Z,0.80
2023-10-22T06:58:31.964Z,0.50
2023-10-22T07:01:04.247Z,0.60
2023-10-22T07:03:30.664Z,0.60
2023-10-22T07:05:57.774Z,0.70
2023-10-22T07:08:24.686Z,0.70
2023-10-22T07:10:50.972Z,0.40
2023-10-22T07:13:18.589Z,0.60
2023-10-22T07:15:46.792Z,0.60
2023-10-22T07:18:13.808Z,0.40
2023-10-22T07:20:40.196Z,0.50
2023-10-22T07:23:07.231Z,0.77
2023-10-22T07:25:34.250Z,0.67
2023-10-22T07:28:00.934Z,0.60
2023-10-22T07:30:27.273Z,0.60
2023-10-22T07:32:53.945Z,0.77
2023-10-22T07:35:20.713Z,0.40
2023-10-22T07:37:47.063Z,0.60
2023-10-22T07:40:13.920Z,0.30
2023-10-22T07:42:40.984Z,0.40
2023-10-22T07:45:08.224Z,0.53
2023-10-22T07:47:35.620Z,0.70
2023-10-22T07:50:01.941Z,0.77
2023-10-22T07:52:28.385Z,0.67
2023-10-22T07:54:54.739Z,0.90
2023-10-22T07:57:25.735Z,0.50
2023-10-22T07:59:52.815Z,0.83
2023-10-22T08:02:19.325Z,0.70
2023-10-22T08:04:45.683Z,0.93
2023-10-22T08:07:12.331Z,0.87
2023-10-22T08:09:38.716Z,1.10
2023-10-22T08:12:07.025Z,0.70
2023-10-22T08:14:33.475Z,0.90
2023-10-22T08:17:00.507Z,1.00
2023-10-22T08:19:29.552Z,0.80
2023-10-22T08:21:56.003Z,1.00
2023-10-22T08:24:22.397Z,0.73
2023-10-22T08:26:48.863Z,0.80
2023-10-22T08:29:16.642Z,0.70
2023-10-22T08:31:43.063Z,0.67
2023-10-22T08:34:10.047Z,0.70
2023-10-22T08:36:36.516Z,0.83
2023-10-22T08:39:03.089Z,0.77
2023-10-22T08:41:34.984Z,0.53
2023-10-22T08:44:03.125Z,0.87
2023-10-22T08:46:29.376Z,0.80
2023-10-22T08:48:55.934Z,0.87
2023-10-22T08:51:23.819Z,0.80
2023-10-22T08:53:50.172Z,0.80
2023-10-22T08:56:17.095Z,0.53
2023-10-22T08:58:43.311Z,0.80
2023-10-22T09:01:09.688Z,0.97
2023-10-22T09:03:36.086Z,0.80
2023-10-22T09:06:06.163Z,0.80
2023-10-22T09:08:43.024Z,0.90
2023-10-22T09:11:13.997Z,1.00
2023-10-22T09:13:40.282Z,0.90
2023-10-22T09:16:06.701Z,1.50
2023-10-22T09:18:33.178Z,1.03
2023-10-22T09:21:06.644Z,1.23
2023-10-22T09:23:33.168Z,1.00
2023-10-22T09:26:00.408Z,1.30
2023-10-22T09:28:27.567Z,1.20
2023-10-22T09:30:55.940Z,1.20
2023-10-22T09:33:33.283Z,1.10
2023-10-22T09:36:02.466Z,1.00
2023-10-22T09:38:45.574Z,1.10
2023-10-22T09:41:13.137Z,1.20
2023-10-22T09:43:39.678Z,1.00
2023-10-22T09:46:06.742Z,1.27
2023-10-22T09:48:34.935Z,1.50
2023-10-22T09:51:04.661Z,1.10
2023-10-22T09:53:31.592Z,1.43
2023-10-22T09:55:58.149Z,1.43
2023-10-22T09:58:29.541Z,1.40
2023-10-22T10:00:56.454Z,1.20
2023-10-22T10:03:22.987Z,1.30
2023-10-22T10:05:49.872Z,1.13
2023-10-22T10:08:18.020Z,1.10
2023-10-22T10:10:46.201Z,1.20
2023-10-22T10:13:12.887Z,1.27
2023-10-22T10:15:40.035Z,1.73
2023-10-22T10:18:07.945Z,1.57
2023-10-22T10:20:36.390Z,1.43
2023-10-22T10:23:08.679Z,2.00
2023-10-22T10:25:37.644Z,1.27
2023-10-22T10:28:05.146Z,1.00
2023-10-22T10:30:31.596Z,1.20
2023-10-22T10:33:14.264Z,1.00
2023-10-22T10:35:44.154Z,1.00
2023-10-22T10:38:21.662Z,0.90
2023-10-22T10:40:49.186Z,1.80
2023-10-22T10:43:15.655Z,1.57
2023-10-22T10:46:15.192Z,0.87
2023-10-22T10:48:48.261Z,0.83
2023-10-22T10:51:18.389Z,0.90
2023-10-22T10:54:18.338Z,0.73
2023-10-22T10:56:45.794Z,0.60
2023-10-22T10:59:14.522Z,0.50
2023-10-22T11:01:40.929Z,0.70
2023-10-22T11:04:08.845Z,0.93
2023-10-22T11:06:35.999Z,0.53
2023-10-22T11:09:02.589Z,0.80
2023-10-22T11:11:30.539Z,1.00
2023-10-22T11:14:11.419Z,0.60
2023-10-22T11:16:51.047Z,0.80
2023-10-22T11:19:22.003Z,0.60
2023-10-22T11:21:48.362Z,0.70
2023-10-22T11:24:14.850Z,0.93
2023-10-22T11:26:43.725Z,0.70
2023-10-22T11:29:11.521Z,0.80
2023-10-22T11:31:38.057Z,0.90
2023-10-22T11:34:14.436Z,0.80
2023-10-22T11:36:41.594Z,0.70
2023-10-22T11:39:24.227Z,0.90
2023-10-22T11:41:58.804Z,0.80
2023-10-22T11:44:31.224Z,1.10
2023-10-22T11:46:58.312Z,0.73
2023-10-22T11:49:24.568Z,0.90
2023-10-22T11:51:51.657Z,0.80
2023-10-22T11:54:18.556Z,0.87
2023-10-22T11:56:44.814Z,0.70
2023-10-22T11:59:13.208Z,1.60
2023-10-22T12:01:40.776Z,1.20
2023-10-22T12:04:07.453Z,1.00
2023-10-22T12:06:34.667Z,0.80
2023-10-22T12:09:01.642Z,0.90
2023-10-22T12:11:28.071Z,0.60
2023-10-22T12:13:54.539Z,1.23
2023-10-22T12:16:20.889Z,1.50
2023-10-22T12:18:47.271Z,0.90
2023-10-22T12:21:13.535Z,1.20
2023-10-22T12:23:48.887Z,0.80
2023-10-22T12:26:16.872Z,0.80
2023-10-22T12:28:43.328Z,0.80
2023-10-22T12:31:09.831Z,0.67
2023-10-22T12:33:36.326Z,0.60
2023-10-22T12:36:04.077Z,0.70
2023-10-22T12:38:30.517Z,0.80
2023-10-22T12:40:56.765Z,0.70
2023-10-22T12:43:23.767Z,0.60
2023-10-22T12:45:50.202Z,0.50
2023-10-22T12:48:16.639Z,0.70
2023-10-22T12:50:47.914Z,0.80
2023-10-22T12:53:14.278Z,0.90
2023-10-22T12:55:40.664Z,1.00
2023-10-22T12:58:06.960Z,1.17
2023-10-22T13:00:34.205Z,0.57
2023-10-22T13:03:00.581Z,0.50
2023-10-22T13:05:26.949Z,0.53
2023-10-22T13:07:53.102Z,0.60
2023-10-22T13:10:22.296Z,0.63
2023-10-22T13:12:58.482Z,0.70
2023-10-22T13:15:28.687Z,0.73
2023-10-22T13:17:56.097Z,0.77
2023-10-22T13:20:22.790Z,0.93
2023-10-22T13:22:49.258Z,1.00
2023-10-22T13:25:15.218Z,1.27
2023-10-22T13:27:42.110Z,0.87
2023-10-22T13:30:09.026Z,0.97
2023-10-22T13:32:35.453Z,1.00
2023-10-22T13:35:03.823Z,0.83
2023-10-22T13:37:30.222Z,1.07
2023-10-22T13:39:56.530Z,0.90
2023-10-22T13:42:23.138Z,1.00
2023-10-22T13:44:50.443Z,1.00
2023-10-22T13:47:16.883Z,1.00
2023-10-22T13:49:44.364Z,1.30
2023-10-22T13:52:11.416Z,1.20
2023-10-22T13:54:37.939Z,0.90
2023-10-22T13:57:04.599Z,0.97
2023-10-22T13:59:31.116Z,0.80
2023-10-22T14:01:57.400Z,0.97
2023-10-22T14:04:24.536Z,1.00
2023-10-22T14:06:50.872Z,1.10
2023-10-22T14:09:17.756Z,1.20
2023-10-22T14:11:44.033Z,1.20
2023-10-22T14:14:10.500Z,1.20
2023-10-22T14:16:36.916Z,1.23
2023-10-22T14:19:03.600Z,1.60
2023-10-22T14:21:30.105Z,1.33
2023-10-22T14:23:56.699Z,1.33
2023-10-22T14:26:23.704Z,1.50
2023-10-22T14:28:50.160Z,1.30
2023-10-22T14:31:16.505Z,1.10
2023-10-22T14:33:42.839Z,1.87
2023-10-22T14:36:09.319Z,1.80
2023-10-22T14:38:35.690Z,2.40
2023-10-22T14:41:02.346Z,2.40
2023-10-22T14:43:29.706Z,2.20
2023-10-22T14:45:59.605Z,1.90
2023-10-22T14:48:25.912Z,1.50
2023-10-22T14:50:53.831Z,1.83
2023-10-22T14:53:20.168Z,1.40
2023-10-22T14:55:54.111Z,1.70
2023-10-22T14:58:20.363Z,1.80
2023-10-22T15:00:47.275Z,1.80
2023-10-22T15:03:13.723Z,1.93
2023-10-22T15:05:43.517Z,2.50
2023-10-22T15:08:10.069Z,2.20
2023-10-22T15:10:39.008Z,2.80
2023-10-22T15:13:05.361Z,2.40
2023-10-22T15:15:37.853Z,2.80
2023-10-22T15:18:05.151Z,2.53
2023-10-22T15:20:36.222Z,2.40
2023-10-22T15:23:02.475Z,3.07
2023-10-22T15:25:28.975Z,2.67
2023-10-22T15:27:55.174Z,2.40
2023-10-22T15:30:21.456Z,2.50
2023-10-22T15:32:47.902Z,2.83
2023-10-22T15:35:15.001Z,2.70
2023-10-22T15:37:41.291Z,3.23
2023-10-22T15:40:09.054Z,3.30
2023-10-22T15:42:35.344Z,3.10
2023-10-22T15:45:04.521Z,3.07
2023-10-22T15:47:30.817Z,3.47
2023-10-22T15:49:57.357Z,3.93
2023-10-22T15:52:24.330Z,3.50
2023-10-22T15:54:50.646Z,3.27
2023-10-22T15:57:17.065Z,3.40
2023-10-22T15:59:43.480Z,3.43
2023-10-22T16:02:09.752Z,3.13
2023-10-22T16:04:38.059Z,3.07
2023-10-22T16:07:06.088Z,2.90
2023-10-22T16:09:33.215Z,3.37
2023-10-22T16:11:59.809Z,3.30
2023-10-22T16:14:26.543Z,3.07
2023-10-22T16:16:52.990Z,3.20
2023-10-22T16:19:19.646Z,2.83
2023-10-22T16:21:46.082Z,2.90
2023-10-22T16:24:12.449Z,3.30
2023-10-22T16:26:39.473Z,3.20
2023-10-22T16:29:05.657Z,3.40
2023-10-22T16:31:32.004Z,3.67
2023-10-22T16:33:58.367Z,3.50
2023-10-22T16:36:24.664Z,3.73
2023-10-22T16:38:51.140Z,4.30
2023-10-22T16:41:18.950Z,3.70
2023-10-22T16:43:46.066Z,4.67
2023-10-22T16:46:13.327Z,4.40
2023-10-22T16:48:39.881Z,4.00
2023-10-22T16:51:06.578Z,3.70
2023-10-22T16:53:33.290Z,3.30
2023-10-22T16:56:01.472Z,3.80
2023-10-22T16:58:29.069Z,3.30
2023-10-22T17:00:56.809Z,3.90
2023-10-22T17:03:23.473Z,3.63
2023-10-22T17:05:53.443Z,3.53
2023-10-22T17:08:19.868Z,3.83
2023-10-22T17:10:46.595Z,3.60
2023-10-22T17:13:13.972Z,3.80
2023-10-22T17:15:40.607Z,4.67
2023-10-22T17:18:07.666Z,4.70
2023-10-22T17:20:37.234Z,3.83
2023-10-22T17:23:03.618Z,3.30
2023-10-22T17:25:35.807Z,3.50
2023-10-22T17:28:02.261Z,3.17
2023-10-22T17:30:28.820Z,3.23
2023-10-22T17:32:55.683Z,3.40
2023-10-22T17:35:22.872Z,3.70
2023-10-22T17:37:49.168Z,3.40
2023-10-22T17:40:15.663Z,3.90
2023-10-22T17:42:42.298Z,4.30
2023-10-22T17:45:09.345Z,4.50
2023-10-22T17:47:36.483Z,4.20
2023-10-22T17:50:04.787Z,4.80
2023-10-22T17:52:32.008Z,4.80
2023-10-22T17:54:58.589Z,5.00
2023-10-22T17:57:25.154Z,5.30
2023-10-22T17:59:51.716Z,5.43
2023-10-22T18:02:18.106Z,5.00
2023-10-22T18:04:44.785Z,5.70
2023-10-22T18:07:12.016Z,4.70
2023-10-22T18:09:39.089Z,5.00
2023-10-22T18:12:06.017Z,4.77
2023-10-22T18:14:34.633Z,5.00
2023-10-22T18:17:01.202Z,4.57
2023-10-22T18:19:39.613Z,4.50
2023-10-22T18:22:07.921Z,4.40
2023-10-22T18:24:35.923Z,4.23
2023-10-22T18:27:03.721Z,6.83
2023-10-22T18:29:30.209Z,5.30
2023-10-22T18:31:57.706Z,3.67
2023-10-22T18:34:27.260Z,4.00
2023-10-22T18:36:54.150Z,3.50
2023-10-22T18:39:20.580Z,2.93
2023-10-22T18:41:52.174Z,2.87
2023-10-22T18:44:24.247Z,3.07
2023-10-22T18:46:50.724Z,2.83
2023-10-22T18:49:16.989Z,2.80
2023-10-22T18:51:45.940Z,2.93
2023-10-22T18:54:15.202Z,2.53
2023-10-22T18:56:41.505Z,2.70
2023-10-22T18:59:08.248Z,2.83
2023-10-22T19:01:35.738Z,3.03
2023-10-22T19:04:02.145Z,3.10
2023-10-22T19:06:29.598Z,3.47
2023-10-22T19:08:57.537Z,4.40
2023-10-22T19:11:26.367Z,3.03
2023-10-22T19:13:55.213Z,3.23
2023-10-22T19:16:23.390Z,3.77
2023-10-22T19:18:50.753Z,3.77
2023-10-22T19:21:17.239Z,2.70
2023-10-22T19:23:45.488Z,2.00
2023-10-22T19:26:12.206Z,2.50
2023-10-22T19:28:38.756Z,1.93
2023-10-22T19:31:09.435Z,2.00
2023-10-22T19:33:37.464Z,3.20
2023-10-22T19:36:05.479Z,2.10
2023-10-22T19:38:32.551Z,2.60
2023-10-22T19:40:59.927Z,2.60
2023-10-22T19:43:26.425Z,2.17
2023-10-22T19:45:54.307Z,2.40
2023-10-22T19:48:21.193Z,2.10
2023-10-22T19:50:47.915Z,2.40
2023-10-22T19:53:14.890Z,2.67
2023-10-22T19:55:41.347Z,2.63
2023-10-22T19:58:07.843Z,2.73
2023-10-22T20:00:34.821Z,3.10
2023-10-22T20:03:01.236Z,3.23
2023-10-22T20:05:34.515Z,3.90
2023-10-22T20:08:01.017Z,4.60
2023-10-22T20:10:42.246Z,4.50
2023-10-22T20:13:09.471Z,5.03
2023-10-22T20:15:37.896Z,3.93
2023-10-22T20:18:04.736Z,4.30
2023-10-22T20:20:31.024Z,4.00
2023-10-22T20:22:57.344Z,3.97
2023-10-22T20:25:24.027Z,3.63
2023-10-22T20:27:51.060Z,3.77
2023-10-22T20:30:17.489Z,3.10
2023-10-22T20:32:43.887Z,3.10
2023-10-22T20:35:10.265Z,2.97
2023-10-22T20:37:37.851Z,2.93
2023-10-22T20:40:05.798Z,2.77
2023-10-22T20:42:32.715Z,3.30
2023-10-22T20:45:01.907Z,2.47
2023-10-22T20:47:28.193Z,2.27
2023-10-22T20:49:54.520Z,2.30
2023-10-22T20:52:20.935Z,2.10
2023-10-22T20:54:48.218Z,2.07
2023-10-22T20:57:14.638Z,1.83
2023-10-22T20:59:41.102Z,2.20
2023-10-22T21:02:07.954Z,2.20
2023-10-22T21:04:35.813Z,2.00
2023-10-22T21:07:02.238Z,2.30
2023-10-22T21:09:29.168Z,2.13
2023-10-22T21:11:55.606Z,1.70
2023-10-22T21:14:22.502Z,2.03
2023-10-22T21:16:48.888Z,2.00
2023-10-22T21:19:16.507Z,1.90
2023-10-22T21:21:47.097Z,1.93
2023-10-22T21:24:13.490Z,1.90
2023-10-22T21:26:39.918Z,1.97
2023-10-22T21:29:06.204Z,1.80
2023-10-22T21:31:32.810Z,1.80
2023-10-22T21:33:59.107Z,1.70
2023-10-22T21:36:26.296Z,1.87
2023-10-22T21:38:52.670Z,1.80
2023-10-22T21:41:18.984Z,1.77
2023-10-22T21:43:45.287Z,1.90
2023-10-22T21:46:11.998Z,2.00
2023-10-22T21:48:39.215Z,1.50
2023-10-22T21:51:05.955Z,2.00
2023-10-22T21:53:32.851Z,1.83
2023-10-22T21:56:00.035Z,1.70
2023-10-22T21:58:26.352Z,2.00
2023-10-22T22:00:52.700Z,1.93
2023-10-22T22:03:21.065Z,2.40
2023-10-22T22:05:47.467Z,2.20
2023-10-22T22:08:13.877Z,2.20
2023-10-22T22:10:40.801Z,2.63
2023-10-22T22:13:07.347Z,2.80
2023-10-22T22:15:34.391Z,2.70
2023-10-22T22:18:00.720Z,2.90
2023-10-22T22:20:27.120Z,2.63
2023-10-22T22:22:53.472Z,2.80
2023-10-22T22:25:23.759Z,2.80
2023-10-22T22:27:53.777Z,2.90
2023-10-22T22:30:20.198Z,3.47
2023-10-22T22:32:46.581Z,3.20
2023-10-22T22:35:13.093Z,2.80
2023-10-22T22:37:39.331Z,2.83
2023-10-22T22:40:07.127Z,2.80
2023-10-22T22:42:33.430Z,2.90
2023-10-22T22:45:00.339Z,3.23
2023-10-22T22:47:26.750Z,3.10
2023-10-22T22:49:53.306Z,3.17
2023-10-22T22:52:19.584Z,3.37
2023-10-22T22:54:46.032Z,3.33
2023-10-22T22:57:12.595Z,3.50
2023-10-22T22:59:38.888Z,3.40
2023-10-22T23:02:05.961Z,3.53
2023-10-22T23:04:32.415Z,3.40
2023-10-22T23:06:58.741Z,3.67
2023-10-22T23:09:25.186Z,3.33
2023-10-22T23:11:51.469Z,3.27
2023-10-22T23:14:17.764Z,3.07
2023-10-22T23:16:44.406Z,3.30
2023-10-22T23:19:11.419Z,3.13
2023-10-22T23:21:37.763Z,2.90
2023-10-22T23:24:04.848Z,3.10
2023-10-22T23:26:31.169Z,3.37
2023-10-22T23:28:57.557Z,3.07
2023-10-22T23:31:24.422Z,3.20
2023-10-22T23:33:50.808Z,3.80
2023-10-22T23:36:18.003Z,3.40
2023-10-22T23:38:44.304Z,3.13
2023-10-22T23:41:10.657Z,3.07
2023-10-22T23:43:37.042Z,3.50
2023-10-22T23:46:03.430Z,3.17
2023-10-22T23:48:30.101Z,3.17
2023-10-22T23:50:56.421Z,3.37
2023-10-22T23:53:23.355Z,3.00
2023-10-22T23:55:49.749Z,3.33
2023-10-22T23:58:16.133Z,3.00
